createdAt,value
2022-10-26T00:00:53.976Z,18.60
2022-10-26T00:03:22.336Z,18.60
2022-10-26T00:05:50.777Z,18.50
2022-10-26T00:08:19.197Z,18.40
2022-10-26T00:10:47.485Z,18.40
2022-10-26T00:13:17.196Z,18.40
2022-10-26T00:15:45.532Z,18.40
2022-10-26T00:18:13.876Z,18.40
2022-10-26T00:20:42.487Z,18.50
2022-10-26T00:23:11.322Z,18.50
2022-10-26T00:25:39.771Z,18.50
2022-10-26T00:28:08.124Z,18.60
2022-10-26T00:30:39.637Z,18.60
2022-10-26T00:33:08.022Z,18.50
2022-10-26T00:35:45.651Z,18.50
2022-10-26T00:38:14.624Z,18.50
2022-10-26T00:40:44.431Z,18.50
2022-10-26T00:43:17.045Z,18.50
2022-10-26T00:45:47.355Z,18.50
2022-10-26T00:48:26.017Z,18.50
2022-10-26T00:50:55.276Z,18.50
2022-10-26T00:53:23.775Z,18.60
2022-10-26T00:55:53.660Z,18.60
2022-10-26T00:58:22.770Z,18.60
2022-10-26T01:00:52.814Z,18.60
2022-10-26T01:03:22.059Z,18.60
2022-10-26T01:05:50.670Z,18.50
2022-10-26T01:08:19.520Z,18.40
2022-10-26T01:10:47.949Z,18.40
2022-10-26T01:13:17.066Z,18.40
2022-10-26T01:15:56.452Z,18.40
2022-10-26T01:18:37.016Z,18.40
2022-10-26T01:21:23.000Z,18.40
2022-10-26T01:24:00.151Z,18.50
2022-10-26T01:26:40.227Z,18.50
2022-10-26T01:29:15.843Z,18.40
2022-10-26T01:31:48.037Z,18.40
2022-10-26T01:34:19.180Z,18.40
2022-10-26T01:36:49.343Z,18.30
2022-10-26T01:39:19.573Z,18.40
2022-10-26T01:41:49.147Z,18.30
2022-10-26T01:44:19.595Z,18.30
2022-10-26T01:46:50.538Z,18.30
2022-10-26T01:49:21.140Z,18.30
2022-10-26T01:51:50.349Z,18.40
2022-10-26T01:54:18.786Z,18.40
2022-10-26T01:56:49.086Z,18.40
2022-10-26T01:59:29.846Z,18.30
2022-10-26T02:02:13.642Z,18.20
2022-10-26T02:04:45.913Z,18.20
2022-10-26T02:07:19.655Z,18.20
2022-10-26T02:09:55.214Z,18.20
2022-10-26T02:12:26.133Z,18.10
2022-10-26T02:14:58.766Z,18.00
2022-10-26T02:17:30.144Z,18.00
2022-10-26T02:20:01.035Z,18.00
2022-10-26T02:22:31.015Z,18.00
2022-10-26T02:25:01.015Z,18.00
2022-10-26T02:27:33.969Z,18.00
2022-10-26T02:30:03.385Z,18.00
2022-10-26T02:32:35.861Z,18.00
2022-10-26T02:35:09.145Z,18.00
2022-10-26T02:37:37.794Z,17.90
2022-10-26T02:40:08.851Z,17.90
2022-10-26T02:42:37.977Z,17.90
2022-10-26T02:45:08.384Z,17.90
2022-10-26T02:47:38.147Z,17.90
2022-10-26T02:50:06.936Z,17.90
2022-10-26T02:52:39.272Z,17.90
2022-10-26T02:55:10.054Z,17.90
2022-10-26T02:57:40.523Z,17.90
2022-10-26T03:02:42.429Z,17.90
2022-10-26T03:05:15.718Z,17.90
2022-10-26T03:07:44.034Z,18.00
2022-10-26T03:10:12.794Z,18.00
2022-10-26T03:12:41.149Z,18.10
2022-10-26T03:15:09.985Z,18.10
2022-10-26T03:17:38.460Z,18.10
2022-10-26T03:20:09.273Z,18.20
2022-10-26T03:22:37.844Z,18.20
2022-10-26T03:27:40.067Z,18.20
2022-10-26T03:30:09.540Z,18.10
2022-10-26T03:32:37.989Z,18.10
2022-10-26T03:35:06.565Z,18.10
2022-10-26T03:37:36.349Z,18.10
2022-10-26T03:40:04.863Z,18.10
2022-10-26T03:42:34.742Z,18.10
2022-10-26T03:45:03.472Z,18.10
2022-10-26T03:47:31.821Z,18.00
2022-10-26T03:50:00.316Z,18.10
2022-10-26T03:52:28.776Z,18.10
2022-10-26T03:54:58.501Z,18.10
2022-10-26T03:57:26.934Z,18.10
2022-10-26T03:59:55.290Z,18.10
2022-10-26T04:02:23.618Z,18.10
2022-10-26T04:04:52.018Z,18.10
2022-10-26T04:07:20.345Z,18.00
2022-10-26T04:09:48.683Z,18.10
2022-10-26T04:12:18.478Z,18.10
2022-10-26T04:14:46.774Z,18.00
2022-10-26T04:17:15.150Z,18.00
2022-10-26T04:19:43.618Z,18.00
2022-10-26T04:22:11.993Z,18.00
2022-10-26T04:24:40.401Z,18.00
2022-10-26T04:27:08.886Z,17.90
2022-10-26T04:29:38.633Z,18.00
2022-10-26T04:32:07.386Z,18.00
2022-10-26T04:34:35.696Z,18.00
2022-10-26T04:37:04.081Z,18.00
2022-10-26T04:39:32.417Z,18.00
2022-10-26T04:42:00.830Z,18.00
2022-10-26T04:44:29.220Z,18.00
2022-10-26T04:46:59.001Z,17.90
2022-10-26T04:49:27.436Z,17.90
2022-10-26T04:51:55.792Z,17.90
2022-10-26T04:54:24.141Z,17.90
2022-10-26T04:56:52.614Z,17.90
2022-10-26T04:59:20.988Z,17.90
2022-10-26T05:01:49.479Z,17.80
2022-10-26T05:04:19.247Z,17.90
2022-10-26T05:06:47.606Z,17.80
2022-10-26T05:09:15.995Z,17.80
2022-10-26T05:11:44.337Z,17.80
2022-10-26T05:14:13.186Z,17.70
2022-10-26T05:16:41.577Z,17.80
2022-10-26T05:19:09.915Z,17.70
2022-10-26T05:21:39.911Z,17.70
2022-10-26T05:24:11.582Z,17.70
2022-10-26T05:26:40.954Z,17.60
2022-10-26T05:29:09.416Z,17.60
2022-10-26T05:31:37.749Z,17.60
2022-10-26T05:34:06.235Z,17.60
2022-10-26T05:36:34.677Z,17.60
2022-10-26T05:39:04.506Z,17.60
2022-10-26T05:41:32.869Z,17.60
2022-10-26T05:44:01.325Z,17.50
2022-10-26T05:46:29.757Z,17.50
2022-10-26T05:48:58.228Z,17.50
2022-10-26T05:51:26.642Z,17.60
2022-10-26T05:53:55.561Z,17.60
2022-10-26T05:56:34.819Z,17.70
2022-10-26T05:59:03.632Z,17.70
2022-10-26T06:01:36.131Z,17.80
2022-10-26T06:04:11.284Z,17.80
2022-10-26T06:06:41.133Z,17.80
2022-10-26T06:09:11.345Z,17.80
2022-10-26T06:11:41.556Z,17.80
2022-10-26T06:14:10.958Z,17.90
2022-10-26T06:16:44.485Z,17.90
2022-10-26T06:19:18.037Z,17.90
2022-10-26T06:21:54.179Z,18.00
2022-10-26T06:24:25.992Z,18.00
2022-10-26T06:26:57.555Z,17.90
2022-10-26T06:29:31.274Z,17.90
2022-10-26T06:31:59.708Z,17.90
2022-10-26T06:34:29.088Z,17.90
2022-10-26T06:36:58.883Z,18.00
2022-10-26T06:39:29.019Z,18.10
2022-10-26T06:41:59.625Z,18.20
2022-10-26T06:44:28.269Z,18.30
2022-10-26T06:47:01.396Z,18.30
2022-10-26T06:49:31.559Z,18.40
2022-10-26T06:52:00.824Z,18.40
2022-10-26T06:54:32.808Z,18.40
2022-10-26T06:57:22.708Z,18.50
2022-10-26T06:59:54.249Z,18.50
2022-10-26T07:02:23.007Z,18.70
2022-10-26T07:04:51.483Z,18.70
2022-10-26T07:07:20.894Z,18.80
2022-10-26T07:09:49.377Z,18.90
2022-10-26T07:12:17.754Z,18.90
2022-10-26T07:14:46.179Z,18.90
2022-10-26T07:17:17.066Z,19.00
2022-10-26T07:19:45.828Z,19.10
2022-10-26T07:22:14.280Z,19.20
2022-10-26T07:24:42.654Z,19.30
2022-10-26T07:27:11.022Z,19.30
2022-10-26T07:29:39.764Z,19.40
2022-10-26T07:32:08.197Z,19.60
2022-10-26T07:34:37.962Z,19.70
2022-10-26T07:37:06.379Z,19.70
2022-10-26T07:39:34.735Z,19.80
2022-10-26T07:42:03.111Z,19.90
2022-10-26T07:44:31.513Z,20.00
2022-10-26T07:47:00.328Z,20.10
2022-10-26T07:49:28.886Z,20.20
2022-10-26T07:51:58.769Z,20.30
2022-10-26T07:54:27.121Z,20.40
2022-10-26T07:56:55.558Z,20.50
2022-10-26T07:59:23.996Z,20.50
2022-10-26T08:01:52.442Z,20.50
2022-10-26T08:04:20.977Z,20.50
2022-10-26T08:06:49.487Z,20.50
2022-10-26T08:09:20.438Z,20.50
2022-10-26T08:11:48.827Z,20.60
2022-10-26T08:14:17.195Z,20.50
2022-10-26T08:16:45.959Z,20.60
2022-10-26T08:19:14.353Z,20.60
2022-10-26T08:21:42.725Z,20.60
2022-10-26T08:24:11.220Z,20.60
2022-10-26T08:26:41.626Z,20.70
2022-10-26T08:29:10.157Z,20.80
2022-10-26T08:31:38.600Z,20.80
2022-10-26T08:34:06.990Z,20.90
2022-10-26T08:36:35.359Z,21.10
2022-10-26T08:39:03.733Z,21.20
2022-10-26T08:41:36.917Z,21.30
2022-10-26T08:44:12.567Z,21.40
2022-10-26T08:46:42.776Z,21.40
2022-10-26T08:49:17.165Z,21.50
2022-10-26T08:51:45.658Z,21.60
2022-10-26T08:54:15.885Z,21.70
2022-10-26T08:56:49.997Z,21.80
2022-10-26T08:59:26.790Z,21.90
2022-10-26T09:01:55.654Z,21.90
2022-10-26T09:04:27.505Z,22.00
2022-10-26T09:07:01.055Z,22.10
2022-10-26T09:09:33.077Z,22.20
2022-10-26T09:12:04.314Z,22.20
2022-10-26T09:14:40.627Z,22.30
2022-10-26T09:17:13.437Z,22.40
2022-10-26T09:20:08.534Z,22.40
2022-10-26T09:22:43.643Z,22.50
2022-10-26T09:25:17.406Z,22.50
2022-10-26T09:27:48.209Z,22.50
2022-10-26T09:30:19.890Z,22.50
2022-10-26T09:32:49.373Z,22.60
2022-10-26T09:35:20.004Z,22.70
2022-10-26T09:37:51.197Z,22.70
2022-10-26T09:40:23.908Z,22.70
2022-10-26T09:42:55.613Z,22.80
2022-10-26T09:45:28.251Z,22.80
2022-10-26T09:48:02.729Z,22.90
2022-10-26T09:50:35.261Z,22.90
2022-10-26T09:53:04.051Z,23.00
2022-10-26T09:55:33.046Z,23.00
2022-10-26T09:58:03.475Z,23.10
2022-10-26T10:03:04.254Z,23.30
2022-10-26T10:08:22.904Z,23.10
2022-10-26T10:10:58.352Z,23.20
2022-10-26T10:13:27.983Z,23.20
2022-10-26T10:15:58.800Z,23.20
2022-10-26T10:18:27.155Z,23.30
2022-10-26T10:20:56.697Z,23.20
2022-10-26T10:23:32.396Z,23.20
2022-10-26T10:26:05.271Z,23.20
2022-10-26T10:28:34.402Z,23.30
2022-10-26T10:31:05.052Z,23.30
2022-10-26T10:33:34.946Z,23.20
2022-10-26T10:36:04.537Z,23.20
2022-10-26T10:38:37.877Z,23.30
2022-10-26T10:41:07.266Z,23.10
2022-10-26T10:43:35.637Z,23.00
2022-10-26T10:46:05.587Z,23.00
2022-10-26T10:48:37.136Z,23.00
2022-10-26T10:51:13.001Z,23.10
2022-10-26T10:53:45.683Z,23.10
2022-10-26T10:56:31.710Z,23.10
2022-10-26T10:59:07.174Z,23.00
2022-10-26T11:01:39.959Z,23.00
2022-10-26T11:04:35.009Z,23.10
2022-10-26T11:07:05.089Z,23.00
2022-10-26T11:09:34.693Z,22.80
2022-10-26T11:12:05.079Z,22.70
2022-10-26T11:14:35.921Z,22.90
2022-10-26T11:17:07.721Z,22.90
2022-10-26T11:19:37.815Z,23.00
2022-10-26T11:22:07.099Z,23.00
2022-10-26T11:24:36.907Z,23.00
2022-10-26T11:27:10.235Z,22.90
2022-10-26T11:29:43.482Z,22.90
2022-10-26T11:32:16.924Z,22.90
2022-10-26T11:34:47.410Z,22.90
2022-10-26T11:37:18.608Z,22.90
2022-10-26T11:39:47.781Z,22.80
2022-10-26T11:42:27.269Z,22.80
2022-10-26T11:44:59.262Z,22.80
2022-10-26T11:47:35.721Z,22.80
2022-10-26T11:50:06.069Z,22.90
2022-10-26T11:52:39.398Z,22.90
2022-10-26T11:55:10.155Z,22.90
2022-10-26T11:57:38.974Z,23.00
2022-10-26T12:00:08.745Z,23.10
2022-10-26T12:05:20.650Z,23.10
2022-10-26T12:07:51.640Z,23.20
2022-10-26T12:10:25.970Z,23.10
2022-10-26T12:12:59.682Z,23.00
2022-10-26T12:15:35.442Z,23.10
2022-10-26T12:18:26.814Z,22.90
2022-10-26T12:21:03.644Z,22.80
2022-10-26T12:23:41.009Z,22.80
2022-10-26T12:26:40.508Z,22.70
2022-10-26T12:29:38.888Z,22.70
2022-10-26T12:32:22.138Z,22.60
2022-10-26T12:35:05.618Z,22.50
2022-10-26T12:37:37.009Z,22.60
2022-10-26T12:40:24.529Z,22.50
2022-10-26T12:42:52.941Z,22.70
2022-10-26T12:45:22.170Z,22.80
2022-10-26T12:48:10.848Z,22.80
2022-10-26T12:50:54.618Z,22.80
2022-10-26T12:53:23.454Z,22.70
2022-10-26T12:56:05.514Z,22.80
2022-10-26T12:59:04.835Z,22.70
2022-10-26T13:01:51.934Z,22.70
2022-10-26T13:04:37.958Z,22.50
2022-10-26T13:07:24.786Z,22.40
2022-10-26T13:10:03.971Z,22.40
2022-10-26T13:12:38.297Z,22.40
2022-10-26T13:15:07.891Z,22.40
2022-10-26T13:17:36.453Z,22.40
2022-10-26T13:20:05.737Z,22.40
2022-10-26T13:22:45.864Z,22.50
2022-10-26T13:25:19.857Z,22.50
2022-10-26T13:27:58.378Z,22.50
2022-10-26T13:30:44.534Z,22.50
2022-10-26T13:33:22.168Z,22.70
2022-10-26T13:35:52.723Z,22.70
2022-10-26T13:38:24.550Z,22.50
2022-10-26T13:40:54.378Z,22.60
2022-10-26T13:43:24.065Z,22.50
2022-10-26T13:45:55.150Z,22.60
2022-10-26T13:48:30.248Z,22.70
2022-10-26T13:51:00.768Z,22.60
2022-10-26T13:53:37.614Z,22.70
2022-10-26T13:56:13.081Z,22.70
2022-10-26T13:58:44.250Z,22.60
2022-10-26T14:01:14.064Z,22.70
2022-10-26T14:03:42.972Z,22.70
2022-10-26T14:06:15.569Z,22.70
2022-10-26T14:08:47.482Z,22.60
2022-10-26T14:11:18.084Z,22.50
2022-10-26T14:13:47.005Z,22.60
2022-10-26T14:16:19.106Z,22.60
2022-10-26T14:18:47.949Z,22.50
2022-10-26T14:21:17.739Z,22.40
2022-10-26T14:23:48.541Z,22.40
2022-10-26T14:26:24.438Z,22.40
2022-10-26T14:28:53.984Z,22.30
2022-10-26T14:31:24.036Z,22.40
2022-10-26T14:33:52.821Z,22.30
2022-10-26T14:36:22.873Z,22.20
2022-10-26T14:38:54.774Z,22.20
2022-10-26T14:41:23.571Z,22.10
2022-10-26T14:43:51.985Z,22.10
2022-10-26T14:46:21.454Z,22.10
2022-10-26T14:48:53.880Z,22.10
2022-10-26T14:51:23.429Z,22.00
2022-10-26T14:53:54.222Z,22.00
2022-10-26T14:56:24.153Z,22.00
2022-10-26T14:58:52.755Z,21.90
2022-10-26T15:01:36.315Z,22.00
2022-10-26T15:04:06.750Z,22.00
2022-10-26T15:06:44.952Z,21.90
2022-10-26T15:09:34.425Z,21.90
2022-10-26T15:12:05.276Z,21.80
2022-10-26T15:14:34.861Z,21.80
2022-10-26T15:17:03.525Z,21.70
2022-10-26T15:19:32.146Z,21.70
2022-10-26T15:22:00.561Z,21.70
2022-10-26T15:24:33.185Z,21.70
2022-10-26T15:27:06.223Z,21.70
2022-10-26T15:29:42.166Z,21.80
2022-10-26T15:32:28.235Z,21.80
2022-10-26T15:35:16.646Z,21.80
2022-10-26T15:37:45.188Z,21.70
2022-10-26T15:40:13.699Z,21.60
2022-10-26T15:42:45.400Z,21.60
2022-10-26T15:45:17.793Z,21.60
2022-10-26T15:47:47.167Z,21.50
2022-10-26T15:50:16.255Z,21.50
2022-10-26T15:52:48.253Z,21.40
2022-10-26T15:55:17.864Z,21.40
2022-10-26T15:57:47.890Z,21.50
2022-10-26T16:00:17.667Z,21.40
2022-10-26T16:02:46.538Z,21.40
2022-10-26T16:05:16.252Z,21.40
2022-10-26T16:07:45.524Z,21.30
2022-10-26T16:10:15.602Z,21.40
2022-10-26T16:12:44.012Z,21.30
2022-10-26T16:15:18.894Z,21.30
2022-10-26T16:17:47.588Z,21.20
2022-10-26T16:20:17.885Z,21.20
2022-10-26T16:22:48.424Z,21.20
2022-10-26T16:25:17.652Z,21.20
2022-10-26T16:27:46.170Z,21.10
2022-10-26T16:30:15.272Z,21.10
2022-10-26T16:32:45.254Z,21.10
2022-10-26T16:35:14.055Z,21.10
2022-10-26T16:37:42.514Z,21.00
2022-10-26T16:40:11.263Z,21.00
2022-10-26T16:42:43.936Z,21.00
2022-10-26T16:45:12.728Z,21.00
2022-10-26T16:47:41.306Z,21.00
2022-10-26T16:50:12.457Z,21.00
2022-10-26T16:52:41.029Z,20.90
2022-10-26T16:55:09.741Z,20.90
2022-10-26T16:57:39.259Z,20.90
2022-10-26T17:00:08.475Z,20.90
2022-10-26T17:02:36.976Z,20.90
2022-10-26T17:05:07.551Z,20.80
2022-10-26T17:07:37.707Z,20.90
2022-10-26T17:10:06.522Z,20.80
2022-10-26T17:12:34.931Z,20.90
2022-10-26T17:15:03.366Z,20.90
2022-10-26T17:17:31.737Z,20.90
2022-10-26T17:20:00.147Z,20.80
2022-10-26T17:22:28.553Z,20.90
2022-10-26T17:24:58.324Z,20.80
2022-10-26T17:27:26.794Z,20.80
2022-10-26T17:29:55.389Z,20.80
2022-10-26T17:32:23.851Z,20.80
2022-10-26T17:34:52.278Z,20.80
2022-10-26T17:37:20.714Z,20.70
2022-10-26T17:39:49.168Z,20.70
2022-10-26T17:42:18.955Z,20.70
2022-10-26T17:44:47.391Z,20.60
2022-10-26T17:47:15.794Z,20.60
2022-10-26T17:49:44.278Z,20.60
2022-10-26T17:52:12.816Z,20.60
2022-10-26T17:54:41.247Z,20.60
2022-10-26T17:57:09.655Z,20.60
2022-10-26T17:59:39.518Z,20.60
2022-10-26T18:02:08.035Z,20.60
2022-10-26T18:04:36.565Z,20.60
2022-10-26T18:07:04.948Z,20.60
2022-10-26T18:09:33.327Z,20.60
2022-10-26T18:12:01.848Z,20.60
2022-10-26T18:14:30.287Z,20.60
2022-10-26T18:17:00.112Z,20.50
2022-10-26T18:19:28.547Z,20.50
2022-10-26T18:21:56.942Z,20.50
2022-10-26T18:24:25.338Z,20.40
2022-10-26T18:26:53.763Z,20.30
2022-10-26T18:29:22.489Z,20.30
2022-10-26T18:31:50.923Z,20.30
2022-10-26T18:34:20.727Z,20.20
2022-10-26T18:36:49.134Z,20.20
2022-10-26T18:39:17.555Z,20.10
2022-10-26T18:41:46.010Z,20.10
2022-10-26T18:44:14.418Z,20.00
2022-10-26T18:46:45.577Z,20.00
2022-10-26T18:49:16.729Z,20.00
2022-10-26T18:51:46.562Z,20.00
2022-10-26T18:54:15.273Z,20.00
2022-10-26T18:56:44.276Z,20.00
2022-10-26T18:59:13.085Z,20.00
2022-10-26T19:01:42.418Z,20.00
2022-10-26T19:04:11.257Z,20.00
2022-10-26T19:06:40.190Z,20.00
2022-10-26T19:09:10.322Z,20.00
2022-10-26T19:11:38.811Z,19.80
2022-10-26T19:14:08.217Z,19.80
2022-10-26T19:16:52.412Z,19.80
2022-10-26T19:19:21.410Z,19.80
2022-10-26T19:21:50.315Z,19.80
2022-10-26T19:24:21.077Z,19.70
2022-10-26T19:26:51.069Z,19.70
2022-10-26T19:29:19.732Z,19.80
2022-10-26T19:31:48.935Z,19.70
2022-10-26T19:34:17.520Z,19.70
2022-10-26T19:36:47.129Z,19.80
2022-10-26T19:39:16.822Z,19.80
2022-10-26T19:41:47.101Z,19.80
2022-10-26T19:44:16.559Z,19.70
2022-10-26T19:46:46.289Z,19.70
2022-10-26T19:49:17.553Z,19.70
2022-10-26T19:51:47.923Z,19.70
2022-10-26T19:54:16.344Z,19.60
2022-10-26T19:56:46.154Z,19.60
2022-10-26T19:59:14.588Z,19.60
2022-10-26T20:01:42.974Z,19.60
2022-10-26T20:04:11.452Z,19.60
2022-10-26T20:06:39.895Z,19.60
2022-10-26T20:09:08.364Z,19.60
2022-10-26T20:11:38.662Z,19.60
2022-10-26T20:14:08.431Z,19.50
2022-10-26T20:16:36.901Z,19.50
2022-10-26T20:19:05.415Z,19.50
2022-10-26T20:21:33.817Z,19.60
2022-10-26T20:24:04.646Z,19.50
2022-10-26T20:26:35.186Z,19.50
2022-10-26T20:29:03.638Z,19.60
2022-10-26T20:31:33.417Z,19.50
2022-10-26T20:34:01.786Z,19.60
2022-10-26T20:36:30.262Z,19.60
2022-10-26T20:38:58.867Z,19.50
2022-10-26T20:41:27.486Z,19.60
2022-10-26T20:43:57.996Z,19.60
2022-10-26T20:46:27.306Z,19.60
2022-10-26T20:48:57.482Z,19.60
2022-10-26T20:51:27.479Z,19.60
2022-10-26T20:54:00.725Z,19.60
2022-10-26T20:56:29.504Z,19.60
2022-10-26T20:58:58.860Z,19.60
2022-10-26T21:01:28.572Z,19.60
2022-10-26T21:03:59.287Z,19.60
2022-10-26T21:06:27.796Z,19.60
2022-10-26T21:08:56.928Z,19.60
2022-10-26T21:11:27.378Z,19.50
2022-10-26T21:13:56.646Z,19.50
2022-10-26T21:16:24.963Z,19.50
2022-10-26T21:18:53.359Z,19.50
2022-10-26T21:21:23.213Z,19.40
2022-10-26T21:23:51.584Z,19.30
2022-10-26T21:26:20.016Z,19.40
2022-10-26T21:28:48.512Z,19.30
2022-10-26T21:31:17.899Z,19.30
2022-10-26T21:33:47.219Z,19.30
2022-10-26T21:36:16.006Z,19.20
2022-10-26T21:38:46.543Z,19.20
2022-10-26T21:41:16.197Z,19.10
2022-10-26T21:43:46.205Z,19.10
2022-10-26T21:46:14.773Z,19.10
2022-10-26T21:48:43.472Z,19.10
2022-10-26T21:51:13.004Z,19.10
2022-10-26T21:53:41.645Z,19.10
2022-10-26T21:56:13.101Z,19.10
2022-10-26T21:58:41.681Z,19.10
2022-10-26T22:01:11.310Z,19.10
2022-10-26T22:03:40.801Z,19.00
2022-10-26T22:06:09.834Z,19.00
2022-10-26T22:08:38.493Z,19.00
2022-10-26T22:11:08.591Z,19.00
2022-10-26T22:13:40.285Z,18.90
2022-10-26T22:16:10.824Z,18.80
2022-10-26T22:18:39.909Z,18.80
2022-10-26T22:21:08.744Z,18.80
2022-10-26T22:23:38.375Z,18.80
2022-10-26T22:26:07.353Z,18.70
2022-10-26T22:28:39.931Z,18.70
2022-10-26T22:31:13.300Z,18.70
2022-10-26T22:33:41.892Z,18.60
2022-10-26T22:36:11.424Z,18.60
2022-10-26T22:38:39.836Z,18.70
2022-10-26T22:41:08.292Z,18.70
2022-10-26T22:43:36.639Z,18.80
2022-10-26T22:46:06.340Z,18.90
2022-10-26T22:48:36.938Z,18.90
2022-10-26T22:51:06.802Z,19.00
2022-10-26T22:53:35.285Z,18.90
2022-10-26T22:56:04.251Z,18.90
2022-10-26T22:58:32.602Z,18.90
2022-10-26T23:01:05.158Z,19.00
2022-10-26T23:03:33.917Z,19.00
2022-10-26T23:06:03.955Z,19.00
2022-10-26T23:08:32.314Z,19.00
2022-10-26T23:11:01.306Z,19.00
2022-10-26T23:13:29.692Z,19.00
2022-10-26T23:16:04.977Z,18.90
2022-10-26T23:18:33.478Z,18.90
2022-10-26T23:21:03.527Z,18.90
2022-10-26T23:23:32.004Z,18.90
2022-10-26T23:26:03.596Z,18.90
2022-10-26T23:28:32.027Z,19.00
2022-10-26T23:31:00.402Z,19.00
2022-10-26T23:33:28.985Z,19.00
2022-10-26T23:35:57.589Z,19.10
2022-10-26T23:38:27.480Z,19.00
2022-10-26T23:40:56.731Z,19.00
2022-10-26T23:43:25.680Z,19.00
2022-10-26T23:45:54.245Z,18.90
2022-10-26T23:48:22.943Z,18.90
2022-10-26T23:50:51.785Z,18.90
2022-10-26T23:53:20.778Z,18.80
2022-10-26T23:55:50.810Z,18.80
2022-10-26T23:58:19.558Z,18.80
